createdAt,value
2019-02-21T16:54:24.836Z,98980.34
2019-02-21T16:56:53.337Z,99012.45
2019-02-21T16:59:21.847Z,99017.57
2019-02-21T17:01:50.396Z,99013.59
2019-02-21T17:04:18.936Z,99012.90
2019-02-21T17:06:47.404Z,99015.98
2019-02-21T17:09:15.958Z,99014.19
2019-02-21T17:11:44.459Z,99017.48
2019-02-21T17:14:12.958Z,99016.72
2019-02-21T17:16:41.567Z,99028.96
2019-02-21T17:19:10.096Z,99023.20
2019-02-21T17:21:38.606Z,99030.84
2019-02-21T17:24:07.177Z,99028.72
2019-02-21T17:26:35.682Z,99031.66
2019-02-21T17:29:04.199Z,99036.20
2019-02-21T17:31:32.774Z,99028.05
2019-02-21T17:34:01.277Z,99030.03
2019-02-21T17:36:29.779Z,99034.21
2019-02-21T17:38:58.318Z,99037.09
2019-02-21T17:41:26.856Z,99036.05
2019-02-21T17:43:55.352Z,99035.39
2019-02-21T17:46:23.899Z,99037.20
2019-02-21T17:48:52.406Z,99037.90
2019-02-21T17:51:20.905Z,99037.14
2019-02-21T17:53:49.531Z,99028.42
2019-02-21T17:56:18.288Z,99038.80
2019-02-21T17:58:46.799Z,99028.64
2019-02-21T18:01:15.363Z,99030.05
2019-02-21T18:03:43.868Z,99026.03
2019-02-21T18:06:12.371Z,99025.92
2019-02-21T18:08:40.915Z,99023.34
2019-02-21T18:11:09.429Z,99018.47
2019-02-21T18:13:37.929Z,99021.54
2019-02-21T18:16:06.537Z,99016.59
2019-02-21T18:18:35.026Z,99016.54
2019-02-21T18:21:03.523Z,99015.36
2019-02-21T18:23:32.073Z,99012.32
2019-02-21T18:26:03.709Z,99014.56
2019-02-21T18:28:32.217Z,99012.20
2019-02-21T18:31:00.773Z,99019.66
2019-02-21T18:33:29.274Z,99018.37
2019-02-21T18:35:57.780Z,99017.83
2019-02-21T18:38:26.336Z,98999.88
2019-02-21T18:40:54.935Z,99017.61
2019-02-21T18:43:23.424Z,99021.72
2019-02-21T18:45:51.973Z,99030.43
2019-02-21T18:48:20.475Z,99023.09
2019-02-21T18:50:49.029Z,99024.93
2019-02-21T18:53:17.570Z,99019.70
2019-02-21T18:55:46.086Z,99022.62
2019-02-21T18:58:14.590Z,99021.34
2019-02-21T19:00:43.160Z,99030.66
2019-02-21T19:03:11.666Z,99032.30
2019-02-21T19:05:40.219Z,99041.39
2019-02-21T19:08:08.765Z,99041.50
2019-02-21T19:10:37.510Z,99041.10
2019-02-21T19:13:07.808Z,99042.33
2019-02-21T19:15:36.758Z,99044.02
2019-02-21T19:18:05.280Z,99047.56
2019-02-21T19:20:33.782Z,99050.23
2019-02-21T19:23:02.343Z,99053.71
2019-02-21T19:25:30.853Z,99065.02
2019-02-21T19:27:59.402Z,99053.98
2019-02-21T19:30:39.979Z,99061.78
2019-02-21T19:33:08.477Z,99059.24
2019-02-21T19:35:36.979Z,99068.67
2019-02-21T19:38:10.322Z,99065.59
2019-02-21T19:40:35.780Z,99069.40
2019-02-21T19:43:04.256Z,99072.72
2019-02-21T19:45:32.806Z,99072.66
2019-02-21T19:48:03.917Z,99074.70
2019-02-21T19:50:31.545Z,99072.24
2019-02-21T19:53:00.103Z,99071.02
2019-02-21T19:55:28.607Z,99075.56
2019-02-21T19:57:57.103Z,99075.09
2019-02-21T20:00:27.779Z,99072.80
2019-02-21T20:02:56.286Z,99064.73
2019-02-21T20:05:24.797Z,99065.45
2019-02-21T20:07:53.432Z,99067.77
2019-02-21T20:10:21.951Z,99066.41
2019-02-21T20:12:50.462Z,99062.83
2019-02-21T20:15:19.022Z,99061.59
2019-02-21T20:17:47.525Z,99061.33
2019-02-21T20:20:26.922Z,99058.28
2019-02-21T20:22:55.432Z,99053.80
2019-02-21T20:25:23.944Z,99051.68
2019-02-21T20:27:52.491Z,99049.88
2019-02-21T20:30:20.998Z,99039.80
2019-02-21T20:32:49.503Z,99035.25
2019-02-21T20:35:18.084Z,99045.75
2019-02-21T20:37:46.596Z,99032.23
2019-02-21T20:40:15.093Z,99033.87
2019-02-21T20:42:43.654Z,99032.73
2019-02-21T20:45:15.327Z,99030.22
2019-02-21T20:47:43.833Z,99033.02
2019-02-21T20:50:15.333Z,99030.55
2019-02-21T20:52:43.831Z,99025.37
2019-02-21T20:55:12.340Z,99019.63
2019-02-21T20:57:40.893Z,99018.15
2019-02-21T21:00:12.196Z,99020.05
2019-02-21T21:02:40.711Z,99018.84
2019-02-21T21:05:09.259Z,99005.28
2019-02-21T21:07:37.778Z,99008.59
2019-02-21T21:10:09.441Z,99004.86
2019-02-21T21:12:38.009Z,98998.23
2019-02-21T21:15:09.531Z,98999.12
2019-02-21T21:17:38.271Z,98996.63
2019-02-21T21:20:16.563Z,99005.06
2019-02-21T21:22:39.692Z,98994.59
2019-02-21T21:25:10.936Z,98996.41
2019-02-21T21:27:39.480Z,98997.51
2019-02-21T21:30:10.491Z,98992.55
2019-02-21T21:32:38.990Z,98988.95
2019-02-21T21:35:07.562Z,98986.77
2019-02-21T21:37:36.067Z,98989.71
2019-02-21T21:40:07.026Z,98992.56
2019-02-21T21:42:35.608Z,98982.38
2019-02-21T21:45:05.412Z,98985.83
2019-02-21T21:47:33.918Z,98983.73
2019-02-21T21:50:02.474Z,98979.80
2019-02-21T21:52:30.982Z,98978.27
2019-02-21T21:54:59.491Z,98980.68
2019-02-21T21:57:28.047Z,98968.96
2019-02-21T21:59:56.599Z,98972.36
2019-02-21T22:02:25.056Z,98966.70
2019-02-21T22:04:53.561Z,98961.67
2019-02-21T22:07:22.062Z,98969.68
2019-02-21T22:09:54.006Z,98965.53
2019-02-21T22:12:22.557Z,98967.78
2019-02-21T22:14:51.084Z,98962.68
2019-02-21T22:17:19.613Z,98967.52
2019-02-21T22:19:48.138Z,98974.50
2019-02-21T22:22:16.695Z,98958.08
2019-02-21T22:24:45.212Z,98968.59
2019-02-21T22:27:13.731Z,98962.28
2019-02-21T22:29:42.272Z,98959.39
2019-02-21T22:32:10.789Z,98964.65
2019-02-21T22:34:39.344Z,98958.32
2019-02-21T22:37:07.871Z,98960.84
2019-02-21T22:39:36.385Z,98972.05
2019-02-21T22:42:04.906Z,98968.05
2019-02-21T22:44:33.432Z,98965.95
2019-02-21T22:47:02.001Z,98962.28
2019-02-21T22:49:30.526Z,98966.42
2019-02-21T22:51:59.044Z,98964.77
2019-02-21T22:54:27.566Z,98970.05
2019-02-21T22:56:56.076Z,98962.38
2019-02-21T22:59:24.656Z,98961.33
2019-02-21T23:01:53.161Z,98957.22
2019-02-21T23:04:24.451Z,98961.95
2019-02-21T23:06:59.202Z,98963.37
2019-02-21T23:09:28.269Z,98959.17
2019-02-21T23:11:57.064Z,98968.29
2019-02-21T23:14:25.607Z,98959.22
2019-02-21T23:16:54.110Z,98962.49
2019-02-21T23:19:24.200Z,98955.77
2019-02-21T23:21:52.834Z,98952.98
2019-02-21T23:24:21.333Z,98946.19
2019-02-21T23:26:49.884Z,98945.68
2019-02-21T23:29:18.391Z,98947.30
2019-02-21T23:31:46.886Z,98945.23
2019-02-21T23:34:20.108Z,98937.20
2019-02-21T23:36:48.650Z,98939.63
2019-02-21T23:39:17.155Z,98936.06
2019-02-21T23:41:45.668Z,98940.69
2019-02-21T23:44:14.173Z,98941.03
2019-02-21T23:46:42.736Z,98938.40
2019-02-21T23:49:11.236Z,98936.97
2019-02-21T23:51:39.736Z,98935.75
2019-02-21T23:54:08.266Z,98940.77
2019-02-21T23:56:36.752Z,98939.55
2019-02-21T23:59:05.297Z,98937.56
